createdAt,value
2019-02-24T00:02:09.446Z,22.37
2019-02-24T00:04:40.890Z,23.77
2019-02-24T00:07:12.490Z,24.13
2019-02-24T00:09:43.790Z,26.17
2019-02-24T00:12:15.012Z,22.70
2019-02-24T00:14:47.003Z,21.67
2019-02-24T00:17:18.691Z,26.10
2019-02-24T00:19:50.010Z,27.53
2019-02-24T00:22:21.852Z,29.17
2019-02-24T00:24:52.598Z,23.03
2019-02-24T00:27:24.050Z,23.53
2019-02-24T00:29:55.278Z,23.57
2019-02-24T00:32:26.769Z,21.33
2019-02-24T00:34:59.238Z,20.23
2019-02-24T00:37:30.932Z,18.97
2019-02-24T00:40:02.339Z,19.67
2019-02-24T00:42:33.790Z,18.77
2019-02-24T00:45:06.510Z,19.07
2019-02-24T00:47:37.872Z,18.93
2019-02-24T00:50:10.088Z,19.70
2019-02-24T00:52:41.914Z,19.63
2019-02-24T00:55:13.230Z,18.83
2019-02-24T00:57:44.632Z,19.50
2019-02-24T01:00:15.847Z,18.93
2019-02-24T01:02:47.277Z,17.63
2019-02-24T01:05:19.952Z,17.90
2019-02-24T01:07:51.410Z,19.03
2019-02-24T01:10:22.650Z,18.77
2019-02-24T01:12:53.974Z,19.50
2019-02-24T01:15:25.247Z,18.40
2019-02-24T01:17:56.950Z,18.10
2019-02-24T01:20:28.865Z,17.20
2019-02-24T01:23:00.038Z,18.30
2019-02-24T01:25:31.250Z,18.37
2019-02-24T01:28:03.043Z,20.07
2019-02-24T01:30:34.181Z,18.40
2019-02-24T01:33:04.952Z,18.03
2019-02-24T01:35:37.350Z,17.10
2019-02-24T01:38:08.950Z,17.23
2019-02-24T01:40:40.691Z,17.40
2019-02-24T01:43:11.630Z,17.93
2019-02-24T01:45:42.705Z,17.43
2019-02-24T01:48:14.284Z,20.37
2019-02-24T01:50:46.652Z,19.27
2019-02-24T01:53:18.266Z,17.00
2019-02-24T01:55:48.752Z,17.50
2019-02-24T01:58:19.892Z,18.20
2019-02-24T02:00:51.022Z,18.77
2019-02-24T02:03:22.451Z,18.13
2019-02-24T02:05:53.082Z,17.43
2019-02-24T02:08:24.417Z,18.17
2019-02-24T02:10:55.752Z,17.93
2019-02-24T02:13:26.457Z,18.73
2019-02-24T02:15:57.717Z,18.50
2019-02-24T02:18:29.825Z,18.07
2019-02-24T02:21:01.362Z,17.50
2019-02-24T02:23:32.297Z,18.63
2019-02-24T02:26:03.077Z,17.83
2019-02-24T02:28:34.351Z,18.13
2019-02-24T02:31:05.414Z,17.60
2019-02-24T02:33:38.162Z,18.37
2019-02-24T02:36:09.778Z,17.80
2019-02-24T02:38:41.937Z,18.53
2019-02-24T02:41:13.122Z,17.53
2019-02-24T02:43:44.341Z,19.90
2019-02-24T02:46:16.172Z,19.90
2019-02-24T02:48:47.123Z,20.30
2019-02-24T02:51:18.257Z,19.60
2019-02-24T02:53:49.541Z,18.80
2019-02-24T02:56:23.487Z,18.80
2019-02-24T02:58:54.945Z,19.00
2019-02-24T03:01:26.163Z,21.60
2019-02-24T03:03:57.096Z,26.43
2019-02-24T03:06:29.948Z,26.97
2019-02-24T03:09:01.042Z,27.43
2019-02-24T03:11:33.024Z,28.10
2019-02-24T03:14:04.298Z,29.90
2019-02-24T03:16:35.187Z,27.63
2019-02-24T03:19:07.149Z,24.67
2019-02-24T03:21:38.228Z,23.90
2019-02-24T03:24:09.017Z,23.17
2019-02-24T03:26:39.643Z,25.53
2019-02-24T03:29:10.490Z,22.87
2019-02-24T03:31:42.254Z,24.37
2019-02-24T03:34:13.514Z,25.27
2019-02-24T03:36:45.284Z,27.00
2019-02-24T03:39:16.028Z,26.67
2019-02-24T03:41:47.342Z,27.37
2019-02-24T03:44:19.082Z,27.13
2019-02-24T03:46:50.592Z,23.23
2019-02-24T03:49:21.667Z,25.17
2019-02-24T03:51:53.031Z,25.37
2019-02-24T03:54:24.103Z,23.33
2019-02-24T03:56:55.455Z,25.23
2019-02-24T03:59:26.534Z,25.97
2019-02-24T04:01:57.416Z,24.83
2019-02-24T04:04:28.606Z,24.63
2019-02-24T04:06:59.574Z,22.77
2019-02-24T04:09:30.902Z,21.83
2019-02-24T04:12:01.977Z,22.73
2019-02-24T04:14:34.227Z,21.57
2019-02-24T04:17:05.305Z,21.80
2019-02-24T04:19:36.469Z,21.93
2019-02-24T04:22:07.325Z,23.43
2019-02-24T04:24:38.050Z,22.40
2019-02-24T04:27:09.379Z,23.97
2019-02-24T04:29:40.867Z,22.00
2019-02-24T04:32:12.177Z,21.00
2019-02-24T04:34:43.062Z,23.03
2019-02-24T04:37:14.498Z,21.93
2019-02-24T04:39:45.777Z,21.77
2019-02-24T04:42:17.378Z,25.77
2019-02-24T04:44:49.342Z,25.90
2019-02-24T04:47:21.332Z,27.20
2019-02-24T04:49:53.180Z,28.00
2019-02-24T04:52:25.129Z,26.30
2019-02-24T04:54:56.494Z,25.63
2019-02-24T04:57:27.717Z,25.07
2019-02-24T04:59:59.370Z,26.93
2019-02-24T05:02:30.699Z,25.83
2019-02-24T05:05:01.468Z,24.10
2019-02-24T05:07:33.328Z,23.17
2019-02-24T05:10:05.736Z,22.97
2019-02-24T05:12:37.128Z,22.23
2019-02-24T05:15:08.201Z,23.67
2019-02-24T05:17:42.785Z,24.53
2019-02-24T05:20:14.489Z,21.70
2019-02-24T05:22:45.647Z,22.47
2019-02-24T05:25:17.060Z,20.97
2019-02-24T05:27:51.500Z,21.23
2019-02-24T05:30:23.200Z,20.10
2019-02-24T05:32:54.340Z,19.83
2019-02-24T05:35:25.584Z,19.07
2019-02-24T05:37:57.080Z,18.70
2019-02-24T05:40:29.511Z,19.20
2019-02-24T05:43:00.680Z,18.33
2019-02-24T05:45:32.539Z,20.00
2019-02-24T05:48:04.330Z,19.00
2019-02-24T05:50:36.381Z,19.07
2019-02-24T05:53:08.462Z,20.43
2019-02-24T05:55:40.742Z,19.00
2019-02-24T05:58:13.213Z,19.57
2019-02-24T06:00:44.898Z,18.83
2019-02-24T06:03:18.367Z,21.67
2019-02-24T06:05:49.137Z,19.83
2019-02-24T06:08:21.211Z,20.03
2019-02-24T06:10:52.511Z,21.20
2019-02-24T06:13:23.779Z,21.70
2019-02-24T06:15:54.986Z,23.17
2019-02-24T06:18:26.757Z,22.07
2019-02-24T06:20:58.115Z,21.37
2019-02-24T06:23:29.584Z,21.87
2019-02-24T06:26:01.682Z,18.43
2019-02-24T06:28:33.513Z,19.23
2019-02-24T06:31:06.335Z,18.20
2019-02-24T06:33:37.795Z,20.13
2019-02-24T06:36:08.765Z,21.50
2019-02-24T06:38:40.264Z,21.63
2019-02-24T06:41:11.705Z,20.40
2019-02-24T06:43:43.282Z,19.40
2019-02-24T06:46:15.006Z,19.67
2019-02-24T06:48:47.351Z,20.20
2019-02-24T06:51:18.744Z,20.77
2019-02-24T06:53:49.586Z,21.37
2019-02-24T06:56:20.861Z,20.07
2019-02-24T06:58:52.186Z,21.07
2019-02-24T07:01:23.559Z,22.03
2019-02-24T07:03:55.092Z,21.67
2019-02-24T07:06:26.853Z,22.30
2019-02-24T07:08:57.560Z,20.70
2019-02-24T07:11:29.213Z,23.07
2019-02-24T07:14:00.758Z,22.50
2019-02-24T07:16:31.867Z,21.00
2019-02-24T07:19:03.657Z,20.83
2019-02-24T07:21:35.222Z,21.30
2019-02-24T07:24:06.734Z,19.83
2019-02-24T07:26:38.822Z,21.23
2019-02-24T07:29:10.304Z,18.87
2019-02-24T07:31:42.262Z,19.77
2019-02-24T07:34:13.217Z,18.67
2019-02-24T07:36:44.395Z,21.17
2019-02-24T07:39:16.333Z,19.83
2019-02-24T07:41:47.919Z,19.33
2019-02-24T07:44:19.116Z,18.40
2019-02-24T07:46:50.435Z,18.60
2019-02-24T07:49:21.849Z,19.47
2019-02-24T07:51:53.581Z,19.57
2019-02-24T07:54:24.954Z,19.57
2019-02-24T07:56:56.236Z,20.10
2019-02-24T07:59:27.648Z,19.73
2019-02-24T08:01:58.867Z,20.23
2019-02-24T08:04:30.598Z,19.13
2019-02-24T08:07:02.106Z,19.00
2019-02-24T08:09:34.818Z,20.87
2019-02-24T08:12:05.983Z,20.07
2019-02-24T08:14:37.263Z,19.93
2019-02-24T08:17:08.450Z,20.80
2019-02-24T08:19:39.649Z,18.77
2019-02-24T08:22:12.098Z,18.70
2019-02-24T08:24:43.155Z,17.63
2019-02-24T08:27:15.274Z,21.20
2019-02-24T08:29:46.609Z,19.20
2019-02-24T08:32:18.465Z,20.13
2019-02-24T08:34:50.098Z,18.77
2019-02-24T08:37:21.885Z,18.60
2019-02-24T08:39:53.946Z,17.60
2019-02-24T08:42:25.969Z,17.80
2019-02-24T08:44:57.579Z,16.47
2019-02-24T08:47:28.604Z,19.57
2019-02-24T08:50:00.596Z,18.57
2019-02-24T08:52:32.847Z,19.30
2019-02-24T08:55:03.660Z,18.90
2019-02-24T08:57:35.262Z,18.37
2019-02-24T09:00:11.067Z,19.33
2019-02-24T09:02:42.400Z,19.20
2019-02-24T09:05:13.857Z,18.17
2019-02-24T09:07:45.629Z,248.43
2019-02-24T09:10:18.286Z,274.23
2019-02-24T09:12:49.729Z,22.43
2019-02-24T09:15:21.582Z,18.30
2019-02-24T09:17:53.092Z,17.90
2019-02-24T09:20:23.989Z,17.27
2019-02-24T09:22:55.423Z,16.23
2019-02-24T09:25:26.656Z,17.00
2019-02-24T09:27:59.326Z,16.73
2019-02-24T09:30:31.324Z,16.33
2019-02-24T09:33:02.316Z,16.30
2019-02-24T09:35:33.913Z,16.53
2019-02-24T09:38:05.193Z,14.63
2019-02-24T09:40:36.481Z,16.43
2019-02-24T09:43:07.582Z,34.83
2019-02-24T09:45:39.647Z,17.73
2019-02-24T09:48:11.142Z,22.43
2019-02-24T09:50:43.064Z,17.87
2019-02-24T09:53:16.344Z,14.20
2019-02-24T09:55:47.109Z,15.63
2019-02-24T09:58:18.202Z,14.93
2019-02-24T10:00:50.431Z,16.30
2019-02-24T10:03:22.327Z,15.03
2019-02-24T10:05:53.619Z,18.20
2019-02-24T10:08:26.101Z,16.30
2019-02-24T10:10:59.405Z,15.73
2019-02-24T10:13:30.828Z,14.73
2019-02-24T10:16:03.006Z,16.07
2019-02-24T10:18:33.786Z,16.33
2019-02-24T10:21:05.494Z,16.73
2019-02-24T10:23:37.888Z,17.43
2019-02-24T10:26:09.412Z,16.70
2019-02-24T10:28:40.735Z,17.70
2019-02-24T10:31:19.604Z,17.90
2019-02-24T10:33:45.589Z,16.37
2019-02-24T10:36:17.692Z,17.20
2019-02-24T10:38:52.581Z,16.67
2019-02-24T10:41:24.733Z,17.07
2019-02-24T10:43:56.675Z,15.87
2019-02-24T10:46:28.418Z,17.57
2019-02-24T10:49:03.681Z,15.10
2019-02-24T10:51:34.077Z,14.43
2019-02-24T10:54:05.620Z,16.20
2019-02-24T10:56:37.538Z,15.83
2019-02-24T10:59:07.878Z,12.87
2019-02-24T11:01:38.129Z,11.10
2019-02-24T11:04:08.432Z,9.23
2019-02-24T11:06:39.405Z,11.63
2019-02-24T11:09:11.577Z,11.13
2019-02-24T11:11:43.816Z,10.07
2019-02-24T11:14:15.395Z,11.87
2019-02-24T11:16:46.628Z,11.40
2019-02-24T11:19:18.497Z,11.77
2019-02-24T11:21:49.614Z,11.67
2019-02-24T11:24:20.933Z,11.23
2019-02-24T11:26:52.220Z,12.40
2019-02-24T11:29:24.464Z,12.57
2019-02-24T11:31:57.973Z,12.10
2019-02-24T11:34:29.615Z,11.33
2019-02-24T11:37:01.658Z,9.97
2019-02-24T11:39:33.278Z,10.60
2019-02-24T11:42:04.718Z,11.47
2019-02-24T11:44:38.385Z,9.90
2019-02-24T11:47:09.878Z,10.20
2019-02-24T11:49:41.814Z,9.30
2019-02-24T11:52:12.708Z,8.43
2019-02-24T11:54:45.545Z,9.13
2019-02-24T11:57:17.418Z,9.23
2019-02-24T11:59:48.500Z,9.00
2019-02-24T12:02:20.036Z,8.83
2019-02-24T12:04:50.956Z,8.40
2019-02-24T12:07:22.776Z,9.30
2019-02-24T12:09:53.575Z,8.08
2019-02-24T12:12:24.490Z,8.57
2019-02-24T12:14:55.265Z,9.00
2019-02-24T12:17:26.992Z,8.77
2019-02-24T12:20:00.428Z,9.80
2019-02-24T12:22:31.072Z,9.23
2019-02-24T12:25:01.328Z,8.73
2019-02-24T12:27:32.865Z,9.20
2019-02-24T12:30:03.215Z,8.73
2019-02-24T12:32:33.567Z,9.47
2019-02-24T12:35:04.430Z,9.65
2019-02-24T12:37:35.370Z,10.95
2019-02-24T12:40:09.290Z,11.12
2019-02-24T12:42:40.656Z,10.32
2019-02-24T12:45:12.027Z,9.10
2019-02-24T12:47:42.342Z,8.75
2019-02-24T12:50:14.501Z,9.90
2019-02-24T12:52:45.852Z,10.00
2019-02-24T12:55:16.127Z,10.28
2019-02-24T12:57:46.465Z,9.05
2019-02-24T13:00:20.495Z,8.97
2019-02-24T13:02:51.490Z,9.17
2019-02-24T13:05:21.766Z,8.57
2019-02-24T13:07:52.031Z,10.60
2019-02-24T13:10:22.339Z,9.43
2019-02-24T13:12:52.758Z,11.30
2019-02-24T13:15:23.565Z,8.00
2019-02-24T13:17:55.655Z,7.35
2019-02-24T13:20:26.715Z,7.75
2019-02-24T13:22:58.675Z,7.75
2019-02-24T13:25:30.543Z,7.12
2019-02-24T13:28:01.816Z,7.55
2019-02-24T13:30:32.940Z,7.83
2019-02-24T13:33:04.888Z,7.95
2019-02-24T13:35:36.380Z,6.62
2019-02-24T13:38:07.227Z,7.55
2019-02-24T13:40:39.353Z,7.45
2019-02-24T13:43:11.681Z,6.80
2019-02-24T13:45:42.820Z,7.97
2019-02-24T13:48:14.490Z,6.80
2019-02-24T13:50:46.451Z,6.58
2019-02-24T13:53:17.397Z,7.30
2019-02-24T13:55:48.454Z,7.72
2019-02-24T13:58:21.658Z,7.20
2019-02-24T14:00:54.822Z,5.75
2019-02-24T14:03:30.235Z,6.40
2019-02-24T14:06:01.640Z,6.90
2019-02-24T14:08:33.581Z,6.83
2019-02-24T14:11:04.634Z,6.72
2019-02-24T14:13:36.531Z,6.62
2019-02-24T14:16:07.454Z,6.47
2019-02-24T14:18:39.067Z,5.62
2019-02-24T14:21:10.478Z,5.83
2019-02-24T14:23:41.672Z,5.58
2019-02-24T14:26:13.925Z,6.67
2019-02-24T14:28:45.282Z,6.25
2019-02-24T14:31:17.501Z,5.87
2019-02-24T14:33:48.556Z,5.30
2019-02-24T14:36:19.909Z,5.15
2019-02-24T14:38:51.807Z,5.53
2019-02-24T14:41:22.708Z,5.50
2019-02-24T14:43:54.566Z,5.37
2019-02-24T14:46:25.986Z,5.58
2019-02-24T14:48:57.222Z,5.53
2019-02-24T14:51:29.177Z,5.60
2019-02-24T14:54:00.718Z,6.62
2019-02-24T14:56:33.117Z,5.65
2019-02-24T14:59:05.593Z,6.67
2019-02-24T15:01:37.440Z,5.60
2019-02-24T15:04:10.116Z,6.53
2019-02-24T15:06:41.657Z,5.20
2019-02-24T15:09:13.147Z,6.53
2019-02-24T15:11:45.174Z,6.12
2019-02-24T15:14:16.503Z,6.25
2019-02-24T15:16:47.951Z,5.72
2019-02-24T15:19:19.632Z,5.65
2019-02-24T15:21:51.940Z,6.00
2019-02-24T15:24:23.890Z,8.15
2019-02-24T15:26:56.833Z,6.05
2019-02-24T15:29:28.730Z,5.90
2019-02-24T15:32:00.288Z,5.47
2019-02-24T15:34:31.618Z,6.80
2019-02-24T15:37:03.150Z,6.20
2019-02-24T15:39:35.795Z,6.35
2019-02-24T15:42:08.226Z,6.42
2019-02-24T15:44:38.968Z,6.08
2019-02-24T15:47:10.192Z,7.35
2019-02-24T15:49:41.870Z,10.55
2019-02-24T15:52:13.757Z,10.40
2019-02-24T15:54:45.508Z,11.85
2019-02-24T15:57:17.786Z,9.20
2019-02-24T15:59:48.985Z,8.88
2019-02-24T16:02:21.127Z,9.73
2019-02-24T16:04:52.906Z,17.67
2019-02-24T16:07:24.723Z,12.82
2019-02-24T16:09:55.074Z,12.95
2019-02-24T16:12:25.430Z,18.85
2019-02-24T16:14:55.779Z,35.00
2019-02-24T16:17:26.116Z,37.83
2019-02-24T16:19:56.792Z,39.23
2019-02-24T16:22:27.247Z,38.75
2019-02-24T16:24:57.510Z,36.70
2019-02-24T16:27:27.851Z,33.10
2019-02-24T16:29:58.141Z,34.43
2019-02-24T16:32:28.479Z,34.60
2019-02-24T16:34:58.945Z,32.00
2019-02-24T16:37:29.190Z,28.12
2019-02-24T16:39:59.473Z,38.43
2019-02-24T16:42:30.304Z,36.17
2019-02-24T16:45:01.344Z,32.07
2019-02-24T16:47:33.184Z,27.70
2019-02-24T16:50:06.833Z,30.07
2019-02-24T16:52:37.581Z,35.53
2019-02-24T16:55:10.533Z,38.47
2019-02-24T16:57:40.971Z,39.93
2019-02-24T17:00:14.816Z,29.70
2019-02-24T17:02:45.661Z,22.33
2019-02-24T17:05:16.026Z,23.00
2019-02-24T17:07:46.383Z,17.30
2019-02-24T17:10:19.466Z,12.37
2019-02-24T17:12:50.335Z,11.60
2019-02-24T17:15:21.700Z,13.60
2019-02-24T17:17:52.014Z,12.57
2019-02-24T17:20:24.521Z,13.20
2019-02-24T17:22:54.930Z,35.97
2019-02-24T17:25:25.204Z,34.00
2019-02-24T17:27:55.572Z,20.73
2019-02-24T17:30:26.929Z,17.57
2019-02-24T17:32:57.203Z,15.17
2019-02-24T17:35:27.511Z,13.40
2019-02-24T17:37:58.337Z,15.33
2019-02-24T17:40:28.687Z,16.97
2019-02-24T17:42:59.200Z,14.47
2019-02-24T17:45:29.539Z,15.57
2019-02-24T17:47:59.976Z,14.47
2019-02-24T17:50:30.529Z,14.23
2019-02-24T17:53:00.828Z,16.43
2019-02-24T17:55:31.176Z,33.97
2019-02-24T17:58:01.656Z,33.30
2019-02-24T18:00:33.672Z,25.17
2019-02-24T18:03:04.904Z,18.73
2019-02-24T18:05:36.712Z,15.40
2019-02-24T18:08:08.798Z,20.70
2019-02-24T18:10:39.916Z,20.10
2019-02-24T18:13:11.344Z,20.70
2019-02-24T18:15:42.358Z,21.97
2019-02-24T18:18:12.643Z,23.47
2019-02-24T18:20:43.576Z,23.53
2019-02-24T18:23:14.322Z,25.20
2019-02-24T18:25:44.675Z,41.23
2019-02-24T18:28:15.060Z,35.07
2019-02-24T18:30:45.470Z,34.07
2019-02-24T18:33:17.004Z,30.43
2019-02-24T18:35:47.669Z,25.83
2019-02-24T18:38:17.972Z,26.23
2019-02-24T18:40:48.269Z,20.57
2019-02-24T18:43:18.769Z,25.07
2019-02-24T18:45:49.071Z,32.37
2019-02-24T18:48:19.775Z,20.93
2019-02-24T18:50:52.287Z,45.63
2019-02-24T18:53:25.510Z,48.37
2019-02-24T18:55:57.965Z,41.83
2019-02-24T18:58:30.351Z,35.83
2019-02-24T19:01:05.175Z,27.70
2019-02-24T19:03:37.456Z,38.47
2019-02-24T19:06:08.602Z,41.93
2019-02-24T19:08:39.162Z,48.43
2019-02-24T19:11:10.136Z,36.33
2019-02-24T19:13:42.382Z,27.17
2019-02-24T19:16:13.224Z,29.30
2019-02-24T19:18:46.482Z,29.17
2019-02-24T19:21:18.294Z,32.30
2019-02-24T19:23:50.038Z,30.20
2019-02-24T19:26:20.345Z,29.27
2019-02-24T19:28:51.097Z,27.30
2019-02-24T19:31:22.443Z,24.63
2019-02-24T19:33:54.116Z,26.67
2019-02-24T19:36:25.543Z,28.03
2019-02-24T19:38:56.165Z,33.80
2019-02-24T19:41:27.103Z,35.37
2019-02-24T19:43:59.049Z,45.63
2019-02-24T19:46:30.984Z,36.03
2019-02-24T19:49:03.063Z,25.43
2019-02-24T19:51:34.435Z,25.37
2019-02-24T19:54:06.863Z,93.67
2019-02-24T19:56:39.138Z,76.83
2019-02-24T19:59:10.824Z,64.60
2019-02-24T20:01:42.123Z,32.20
2019-02-24T20:04:16.281Z,30.43
2019-02-24T20:06:46.933Z,24.03
2019-02-24T20:09:18.675Z,25.27
2019-02-24T20:11:49.523Z,36.97
2019-02-24T20:14:20.963Z,37.30
2019-02-24T20:16:52.881Z,40.83
2019-02-24T20:19:25.187Z,28.90
2019-02-24T20:22:01.984Z,29.93
2019-02-24T20:24:33.772Z,25.03
2019-02-24T20:27:06.736Z,23.63
2019-02-24T20:29:38.102Z,22.20
2019-02-24T20:32:09.220Z,21.83
2019-02-24T20:34:40.447Z,22.07
2019-02-24T20:37:11.523Z,21.53
2019-02-24T20:39:43.222Z,20.40
2019-02-24T20:42:14.804Z,18.97
2019-02-24T20:44:46.356Z,18.70
2019-02-24T20:47:18.484Z,18.63
2019-02-24T20:49:51.224Z,17.60
2019-02-24T20:52:22.941Z,19.00
2019-02-24T20:54:54.164Z,33.10
2019-02-24T20:57:25.524Z,20.20
2019-02-24T20:59:56.042Z,23.17
2019-02-24T21:02:26.610Z,18.47
2019-02-24T21:04:58.638Z,20.33
2019-02-24T21:07:30.580Z,20.77
2019-02-24T21:10:02.049Z,19.33
2019-02-24T21:12:32.892Z,20.17
2019-02-24T21:15:05.141Z,22.57
2019-02-24T21:17:36.576Z,22.07
2019-02-24T21:20:10.722Z,22.13
2019-02-24T21:22:42.183Z,18.90
2019-02-24T21:25:13.698Z,21.40
2019-02-24T21:27:44.271Z,20.23
2019-02-24T21:30:17.069Z,20.27
2019-02-24T21:32:48.902Z,18.67
2019-02-24T21:35:21.122Z,19.33
2019-02-24T21:37:53.282Z,23.80
2019-02-24T21:40:27.205Z,22.30
2019-02-24T21:43:05.225Z,22.73
2019-02-24T21:45:37.002Z,23.20
2019-02-24T21:48:08.275Z,28.73
2019-02-24T21:50:39.725Z,39.30
2019-02-24T21:53:10.933Z,35.63
2019-02-24T21:55:43.657Z,39.97
2019-02-24T21:58:14.828Z,30.97
2019-02-24T22:00:47.085Z,34.17
2019-02-24T22:03:23.335Z,30.50
2019-02-24T22:05:56.712Z,29.70
2019-02-24T22:08:27.013Z,28.90
2019-02-24T22:10:58.288Z,28.37
2019-02-24T22:13:29.906Z,28.17
2019-02-24T22:16:01.644Z,30.13
2019-02-24T22:18:35.502Z,29.03
2019-02-24T22:21:07.701Z,26.67
2019-02-24T22:23:38.627Z,32.10
2019-02-24T22:26:09.501Z,35.33
2019-02-24T22:28:40.704Z,31.17
2019-02-24T22:31:12.068Z,24.67
2019-02-24T22:33:43.388Z,22.33
2019-02-24T22:36:13.850Z,28.77
2019-02-24T22:38:44.642Z,23.00
2019-02-24T22:41:15.683Z,52.97
2019-02-24T22:43:47.676Z,31.90
2019-02-24T22:46:19.346Z,28.07
2019-02-24T22:48:50.855Z,23.50
2019-02-24T22:51:23.086Z,34.10
2019-02-24T22:53:54.486Z,28.20
2019-02-24T22:56:25.089Z,34.93
2019-02-24T22:58:57.303Z,32.90
2019-02-24T23:01:28.754Z,28.53
2019-02-24T23:04:04.964Z,26.03
2019-02-24T23:06:36.921Z,26.00
2019-02-24T23:09:09.511Z,25.00
2019-02-24T23:11:41.755Z,23.10
2019-02-24T23:14:12.568Z,24.87
2019-02-24T23:16:43.374Z,25.50
2019-02-24T23:19:15.574Z,23.67
2019-02-24T23:21:46.368Z,28.43
2019-02-24T23:24:17.030Z,28.50
2019-02-24T23:26:48.303Z,31.43
2019-02-24T23:29:20.401Z,31.17
2019-02-24T23:31:51.611Z,34.17
2019-02-24T23:34:22.701Z,38.80
2019-02-24T23:36:53.629Z,37.97
2019-02-24T23:39:24.128Z,43.00
2019-02-24T23:41:55.586Z,33.37
2019-02-24T23:44:26.401Z,30.07
2019-02-24T23:46:57.866Z,37.67
2019-02-24T23:49:29.060Z,21.93
2019-02-24T23:51:59.873Z,31.57
2019-02-24T23:54:30.872Z,25.47
2019-02-24T23:57:01.663Z,26.17
2019-02-24T23:59:32.612Z,32.57
